sensor_id;sensor_type;location;lat;lon;timestamp;P1;durP1;ratioP1;P2;durP2;ratioP2
51148;SDS011;37210;50.058;8.688;2023-03-26T00:01:49;2.63;;;1.65;;
51148;SDS011;37210;50.058;8.688;2023-03-26T00:04:16;5.25;;;1.70;;
51148;SDS011;37210;50.058;8.688;2023-03-26T00:06:46;4.72;;;1.73;;
51148;SDS011;37210;50.058;8.688;2023-03-26T00:09:15;6.63;;;1.90;;
51148;SDS011;37210;50.058;8.688;2023-03-26T00:11:44;4.22;;;1.90;;
51148;SDS011;37210;50.058;8.688;2023-03-26T00:14:12;3.63;;;1.75;;
51148;SDS011;37210;50.058;8.688;2023-03-26T00:16:44;4.90;;;2.10;;
51148;SDS011;37210;50.058;8.688;2023-03-26T00:19:12;3.72;;;1.85;;
51148;SDS011;37210;50.058;8.688;2023-03-26T00:21:39;3.15;;;1.50;;
51148;SDS011;37210;50.058;8.688;2023-03-26T00:24:09;4.30;;;1.83;;
51148;SDS011;37210;50.058;8.688;2023-03-26T00:26:39;4.28;;;1.80;;
51148;SDS011;37210;50.058;8.688;2023-03-26T00:29:08;2.78;;;1.55;;
51148;SDS011;37210;50.058;8.688;2023-03-26T00:31:38;4.25;;;1.65;;
51148;SDS011;37210;50.058;8.688;2023-03-26T00:34:07;4.25;;;2.60;;
51148;SDS011;37210;50.058;8.688;2023-03-26T00:36:35;4.85;;;1.95;;
51148;SDS011;37210;50.058;8.688;2023-03-26T00:39:03;4.28;;;2.30;;
51148;SDS011;37210;50.058;8.688;2023-03-26T00:41:31;3.97;;;2.00;;
51148;SDS011;37210;50.058;8.688;2023-03-26T00:44:01;5.15;;;2.42;;
51148;SDS011;37210;50.058;8.688;2023-03-26T00:46:29;3.75;;;1.92;;
51148;SDS011;37210;50.058;8.688;2023-03-26T00:48:57;2.92;;;1.77;;
51148;SDS011;37210;50.058;8.688;2023-03-26T00:51:28;3.80;;;2.00;;
51148;SDS011;37210;50.058;8.688;2023-03-26T00:53:56;3.25;;;1.30;;
51148;SDS011;37210;50.058;8.688;2023-03-26T00:56:24;3.33;;;1.80;;
51148;SDS011;37210;50.058;8.688;2023-03-26T00:58:52;2.13;;;1.80;;
51148;SDS011;37210;50.058;8.688;2023-03-26T01:01:20;4.82;;;2.40;;
51148;SDS011;37210;50.058;8.688;2023-03-26T01:03:52;4.32;;;1.77;;
51148;SDS011;37210;50.058;8.688;2023-03-26T01:06:24;3.60;;;1.80;;
51148;SDS011;37210;50.058;8.688;2023-03-26T01:09:00;3.50;;;2.00;;
51148;SDS011;37210;50.058;8.688;2023-03-26T01:11:31;3.80;;;1.95;;
51148;SDS011;37210;50.058;8.688;2023-03-26T01:14:03;4.22;;;2.17;;
51148;SDS011;37210;50.058;8.688;2023-03-26T01:16:35;4.60;;;2.13;;
51148;SDS011;37210;50.058;8.688;2023-03-26T01:19:08;2.90;;;1.73;;
51148;SDS011;37210;50.058;8.688;2023-03-26T01:21:48;3.63;;;1.58;;
51148;SDS011;37210;50.058;8.688;2023-03-26T01:24:18;6.20;;;2.30;;
51148;SDS011;37210;50.058;8.688;2023-03-26T01:26:48;5.20;;;2.30;;
51148;SDS011;37210;50.058;8.688;2023-03-26T01:29:31;4.80;;;2.17;;
51148;SDS011;37210;50.058;8.688;2023-03-26T01:34:48;4.00;;;2.15;;
51148;SDS011;37210;50.058;8.688;2023-03-26T01:37:35;4.22;;;2.17;;
51148;SDS011;37210;50.058;8.688;2023-03-26T01:40:15;3.35;;;1.75;;
51148;SDS011;37210;50.058;8.688;2023-03-26T01:42:53;3.55;;;2.00;;
51148;SDS011;37210;50.058;8.688;2023-03-26T01:45:29;3.78;;;2.22;;
51148;SDS011;37210;50.058;8.688;2023-03-26T01:48:01;4.90;;;2.20;;
51148;SDS011;37210;50.058;8.688;2023-03-26T01:50:30;4.47;;;2.25;;
51148;SDS011;37210;50.058;8.688;2023-03-26T01:52:58;5.65;;;2.03;;
51148;SDS011;37210;50.058;8.688;2023-03-26T01:55:30;4.35;;;2.35;;
51148;SDS011;37210;50.058;8.688;2023-03-26T01:58:09;2.95;;;2.35;;
51148;SDS011;37210;50.058;8.688;2023-03-26T02:00:50;2.97;;;2.00;;
51148;SDS011;37210;50.058;8.688;2023-03-26T02:03:29;4.88;;;2.75;;
51148;SDS011;37210;50.058;8.688;2023-03-26T02:06:02;3.05;;;2.20;;
51148;SDS011;37210;50.058;8.688;2023-03-26T02:08:40;7.32;;;2.30;;
51148;SDS011;37210;50.058;8.688;2023-03-26T02:11:15;5.70;;;2.53;;
51148;SDS011;37210;50.058;8.688;2023-03-26T02:13:43;6.65;;;2.55;;
51148;SDS011;37210;50.058;8.688;2023-03-26T02:16:13;6.10;;;2.00;;
51148;SDS011;37210;50.058;8.688;2023-03-26T02:18:43;4.07;;;2.03;;
51148;SDS011;37210;50.058;8.688;2023-03-26T02:21:16;3.70;;;2.03;;
51148;SDS011;37210;50.058;8.688;2023-03-26T02:23:48;3.25;;;1.95;;
51148;SDS011;37210;50.058;8.688;2023-03-26T02:26:24;5.45;;;2.10;;
51148;SDS011;37210;50.058;8.688;2023-03-26T02:29:03;5.13;;;2.55;;
51148;SDS011;37210;50.058;8.688;2023-03-26T02:31:31;5.00;;;1.98;;
51148;SDS011;37210;50.058;8.688;2023-03-26T02:34:00;2.97;;;2.15;;
51148;SDS011;37210;50.058;8.688;2023-03-26T02:36:31;5.32;;;2.08;;
51148;SDS011;37210;50.058;8.688;2023-03-26T02:39:02;4.40;;;2.00;;
51148;SDS011;37210;50.058;8.688;2023-03-26T02:41:35;4.50;;;2.22;;
51148;SDS011;37210;50.058;8.688;2023-03-26T02:44:07;4.75;;;2.17;;
51148;SDS011;37210;50.058;8.688;2023-03-26T02:46:54;4.32;;;2.10;;
51148;SDS011;37210;50.058;8.688;2023-03-26T02:49:44;4.43;;;2.00;;
51148;SDS011;37210;50.058;8.688;2023-03-26T02:52:18;4.13;;;2.25;;
51148;SDS011;37210;50.058;8.688;2023-03-26T02:54:48;4.85;;;2.05;;
51148;SDS011;37210;50.058;8.688;2023-03-26T02:57:20;5.68;;;2.10;;
51148;SDS011;37210;50.058;8.688;2023-03-26T02:59:53;6.53;;;2.78;;
51148;SDS011;37210;50.058;8.688;2023-03-26T03:02:34;6.45;;;2.28;;
51148;SDS011;37210;50.058;8.688;2023-03-26T03:05:22;5.35;;;2.50;;
51148;SDS011;37210;50.058;8.688;2023-03-26T03:08:04;5.93;;;2.20;;
51148;SDS011;37210;50.058;8.688;2023-03-26T03:10:35;5.38;;;2.20;;
51148;SDS011;37210;50.058;8.688;2023-03-26T03:13:11;3.72;;;2.35;;
51148;SDS011;37210;50.058;8.688;2023-03-26T03:15:39;3.60;;;2.17;;
51148;SDS011;37210;50.058;8.688;2023-03-26T03:18:07;5.00;;;2.03;;
51148;SDS011;37210;50.058;8.688;2023-03-26T03:20:35;5.15;;;2.45;;
51148;SDS011;37210;50.058;8.688;2023-03-26T03:23:02;5.88;;;2.45;;
51148;SDS011;37210;50.058;8.688;2023-03-26T03:25:30;6.32;;;2.47;;
51148;SDS011;37210;50.058;8.688;2023-03-26T03:27:59;7.05;;;2.40;;
51148;SDS011;37210;50.058;8.688;2023-03-26T03:30:29;5.50;;;2.38;;
51148;SDS011;37210;50.058;8.688;2023-03-26T03:33:19;5.18;;;2.50;;
51148;SDS011;37210;50.058;8.688;2023-03-26T03:35:47;5.00;;;2.67;;
51148;SDS011;37210;50.058;8.688;2023-03-26T03:38:16;8.30;;;2.38;;
51148;SDS011;37210;50.058;8.688;2023-03-26T03:40:47;5.82;;;2.25;;
51148;SDS011;37210;50.058;8.688;2023-03-26T03:43:15;4.93;;;2.30;;
51148;SDS011;37210;50.058;8.688;2023-03-26T03:45:57;6.45;;;2.45;;
51148;SDS011;37210;50.058;8.688;2023-03-26T03:48:35;4.07;;;2.55;;
51148;SDS011;37210;50.058;8.688;2023-03-26T03:51:05;6.38;;;2.40;;
51148;SDS011;37210;50.058;8.688;2023-03-26T03:53:58;7.22;;;2.70;;
51148;SDS011;37210;50.058;8.688;2023-03-26T03:56:54;5.10;;;2.28;;
51148;SDS011;37210;50.058;8.688;2023-03-26T03:59:31;8.52;;;2.60;;
51148;SDS011;37210;50.058;8.688;2023-03-26T04:02:00;4.43;;;2.28;;
51148;SDS011;37210;50.058;8.688;2023-03-26T04:04:38;6.10;;;2.78;;
51148;SDS011;37210;50.058;8.688;2023-03-26T04:07:09;5.70;;;2.63;;
51148;SDS011;37210;50.058;8.688;2023-03-26T04:09:55;5.70;;;2.92;;
51148;SDS011;37210;50.058;8.688;2023-03-26T04:12:31;4.25;;;2.38;;
51148;SDS011;37210;50.058;8.688;2023-03-26T04:15:01;9.30;;;2.30;;
51148;SDS011;37210;50.058;8.688;2023-03-26T04:17:31;4.25;;;1.98;;
51148;SDS011;37210;50.058;8.688;2023-03-26T04:20:08;3.60;;;2.20;;
51148;SDS011;37210;50.058;8.688;2023-03-26T04:22:39;5.47;;;2.28;;
51148;SDS011;37210;50.058;8.688;2023-03-26T04:25:08;7.50;;;2.60;;
51148;SDS011;37210;50.058;8.688;2023-03-26T04:27:46;5.30;;;2.75;;
51148;SDS011;37210;50.058;8.688;2023-03-26T04:30:20;4.80;;;2.40;;
51148;SDS011;37210;50.058;8.688;2023-03-26T04:32:56;4.00;;;2.17;;
51148;SDS011;37210;50.058;8.688;2023-03-26T04:35:30;5.90;;;2.58;;
51148;SDS011;37210;50.058;8.688;2023-03-26T04:38:00;6.43;;;2.40;;
51148;SDS011;37210;50.058;8.688;2023-03-26T04:40:34;4.10;;;2.08;;
51148;SDS011;37210;50.058;8.688;2023-03-26T04:43:12;6.25;;;2.53;;
51148;SDS011;37210;50.058;8.688;2023-03-26T04:46:01;4.35;;;2.00;;
51148;SDS011;37210;50.058;8.688;2023-03-26T04:48:34;3.47;;;2.10;;
51148;SDS011;37210;50.058;8.688;2023-03-26T04:51:03;4.72;;;2.70;;
51148;SDS011;37210;50.058;8.688;2023-03-26T04:53:35;5.90;;;2.70;;
51148;SDS011;37210;50.058;8.688;2023-03-26T04:56:29;5.93;;;2.50;;
51148;SDS011;37210;50.058;8.688;2023-03-26T04:59:21;4.95;;;2.67;;
51148;SDS011;37210;50.058;8.688;2023-03-26T05:02:00;7.32;;;2.95;;
51148;SDS011;37210;50.058;8.688;2023-03-26T05:04:35;5.53;;;3.00;;
51148;SDS011;37210;50.058;8.688;2023-03-26T05:07:06;6.05;;;2.72;;
51148;SDS011;37210;50.058;8.688;2023-03-26T05:09:41;4.25;;;2.42;;
51148;SDS011;37210;50.058;8.688;2023-03-26T05:12:14;3.65;;;2.40;;
51148;SDS011;37210;50.058;8.688;2023-03-26T05:14:56;4.45;;;2.42;;
51148;SDS011;37210;50.058;8.688;2023-03-26T05:17:42;5.68;;;2.85;;
51148;SDS011;37210;50.058;8.688;2023-03-26T05:20:20;5.03;;;2.47;;
51148;SDS011;37210;50.058;8.688;2023-03-26T05:22:50;6.55;;;2.25;;
51148;SDS011;37210;50.058;8.688;2023-03-26T05:25:25;4.13;;;2.55;;
51148;SDS011;37210;50.058;8.688;2023-03-26T05:27:54;6.72;;;2.53;;
51148;SDS011;37210;50.058;8.688;2023-03-26T05:30:26;6.25;;;2.72;;
51148;SDS011;37210;50.058;8.688;2023-03-26T05:32:58;5.80;;;2.85;;
51148;SDS011;37210;50.058;8.688;2023-03-26T05:35:32;6.57;;;3.00;;
51148;SDS011;37210;50.058;8.688;2023-03-26T05:38:00;6.22;;;2.63;;
51148;SDS011;37210;50.058;8.688;2023-03-26T05:40:28;5.70;;;2.75;;
51148;SDS011;37210;50.058;8.688;2023-03-26T05:42:58;6.43;;;2.80;;
51148;SDS011;37210;50.058;8.688;2023-03-26T05:50:53;6.07;;;2.78;;
51148;SDS011;37210;50.058;8.688;2023-03-26T05:53:24;6.95;;;3.13;;
51148;SDS011;37210;50.058;8.688;2023-03-26T05:56:16;5.82;;;2.67;;
51148;SDS011;37210;50.058;8.688;2023-03-26T05:59:07;5.60;;;2.80;;
51148;SDS011;37210;50.058;8.688;2023-03-26T06:01:44;6.07;;;3.13;;
51148;SDS011;37210;50.058;8.688;2023-03-26T06:04:15;6.47;;;2.85;;
51148;SDS011;37210;50.058;8.688;2023-03-26T06:06:55;5.78;;;2.95;;
51148;SDS011;37210;50.058;8.688;2023-03-26T06:09:23;4.43;;;2.72;;
51148;SDS011;37210;50.058;8.688;2023-03-26T06:11:51;3.47;;;2.58;;
51148;SDS011;37210;50.058;8.688;2023-03-26T06:14:19;5.95;;;2.78;;
51148;SDS011;37210;50.058;8.688;2023-03-26T06:17:05;5.43;;;2.63;;
51148;SDS011;37210;50.058;8.688;2023-03-26T06:19:53;6.25;;;2.45;;
51148;SDS011;37210;50.058;8.688;2023-03-26T06:22:30;4.18;;;2.60;;
51148;SDS011;37210;50.058;8.688;2023-03-26T06:25:19;5.07;;;2.80;;
51148;SDS011;37210;50.058;8.688;2023-03-26T06:27:55;5.65;;;2.40;;
51148;SDS011;37210;50.058;8.688;2023-03-26T06:30:34;4.63;;;2.67;;
51148;SDS011;37210;50.058;8.688;2023-03-26T06:33:07;5.43;;;2.50;;
51148;SDS011;37210;50.058;8.688;2023-03-26T06:35:42;6.47;;;3.15;;
51148;SDS011;37210;50.058;8.688;2023-03-26T06:38:13;4.78;;;2.60;;
51148;SDS011;37210;50.058;8.688;2023-03-26T06:40:41;5.22;;;2.60;;
51148;SDS011;37210;50.058;8.688;2023-03-26T06:43:24;4.00;;;2.95;;
51148;SDS011;37210;50.058;8.688;2023-03-26T06:46:10;8.17;;;2.83;;
51148;SDS011;37210;50.058;8.688;2023-03-26T06:48:38;8.00;;;3.28;;
51148;SDS011;37210;50.058;8.688;2023-03-26T06:51:27;5.57;;;3.10;;
51148;SDS011;37210;50.058;8.688;2023-03-26T06:54:14;4.88;;;2.92;;
51148;SDS011;37210;50.058;8.688;2023-03-26T06:56:53;5.95;;;3.20;;
51148;SDS011;37210;50.058;8.688;2023-03-26T06:59:23;7.60;;;2.88;;
51148;SDS011;37210;50.058;8.688;2023-03-26T07:02:26;7.30;;;3.10;;
51148;SDS011;37210;50.058;8.688;2023-03-26T07:05:12;6.10;;;3.30;;
51148;SDS011;37210;50.058;8.688;2023-03-26T07:07:59;7.35;;;3.28;;
51148;SDS011;37210;50.058;8.688;2023-03-26T07:13:37;5.60;;;2.83;;
51148;SDS011;37210;50.058;8.688;2023-03-26T07:16:25;4.13;;;2.65;;
51148;SDS011;37210;50.058;8.688;2023-03-26T07:19:05;3.88;;;2.58;;
51148;SDS011;37210;50.058;8.688;2023-03-26T07:21:35;6.65;;;3.15;;
51148;SDS011;37210;50.058;8.688;2023-03-26T07:24:13;4.93;;;2.90;;
51148;SDS011;37210;50.058;8.688;2023-03-26T07:27:05;6.97;;;2.70;;
51148;SDS011;37210;50.058;8.688;2023-03-26T07:29:44;5.90;;;3.15;;
51148;SDS011;37210;50.058;8.688;2023-03-26T07:32:39;7.18;;;2.88;;
51148;SDS011;37210;50.058;8.688;2023-03-26T07:35:45;7.85;;;3.08;;
51148;SDS011;37210;50.058;8.688;2023-03-26T07:38:28;7.05;;;3.00;;
51148;SDS011;37210;50.058;8.688;2023-03-26T07:41:38;6.57;;;3.22;;
51148;SDS011;37210;50.058;8.688;2023-03-26T07:47:31;8.95;;;2.88;;
51148;SDS011;37210;50.058;8.688;2023-03-26T07:50:13;4.72;;;2.90;;
51148;SDS011;37210;50.058;8.688;2023-03-26T07:53:08;6.38;;;3.25;;
51148;SDS011;37210;50.058;8.688;2023-03-26T07:58:51;9.45;;;3.10;;
51148;SDS011;37210;50.058;8.688;2023-03-26T08:02:11;7.03;;;2.67;;
51148;SDS011;37210;50.058;8.688;2023-03-26T08:05:23;5.07;;;2.85;;
51148;SDS011;37210;50.058;8.688;2023-03-26T08:08:24;5.05;;;2.83;;
51148;SDS011;37210;50.058;8.688;2023-03-26T08:11:36;4.70;;;2.40;;
51148;SDS011;37210;50.058;8.688;2023-03-26T08:14:25;3.58;;;2.75;;
51148;SDS011;37210;50.058;8.688;2023-03-26T08:17:04;8.15;;;3.30;;
51148;SDS011;37210;50.058;8.688;2023-03-26T08:19:42;7.57;;;3.30;;
51148;SDS011;37210;50.058;8.688;2023-03-26T08:22:24;5.35;;;3.08;;
51148;SDS011;37210;50.058;8.688;2023-03-26T08:25:02;6.45;;;2.95;;
51148;SDS011;37210;50.058;8.688;2023-03-26T08:27:46;5.38;;;3.03;;
51148;SDS011;37210;50.058;8.688;2023-03-26T08:30:33;3.15;;;2.60;;
51148;SDS011;37210;50.058;8.688;2023-03-26T08:33:03;5.30;;;2.70;;
51148;SDS011;37210;50.058;8.688;2023-03-26T08:35:43;6.53;;;3.00;;
51148;SDS011;37210;50.058;8.688;2023-03-26T08:38:12;3.28;;;2.60;;
51148;SDS011;37210;50.058;8.688;2023-03-26T08:40:51;6.53;;;3.00;;
51148;SDS011;37210;50.058;8.688;2023-03-26T08:43:58;4.88;;;2.55;;
51148;SDS011;37210;50.058;8.688;2023-03-26T08:47:26;4.78;;;2.70;;
51148;SDS011;37210;50.058;8.688;2023-03-26T09:03:51;6.28;;;3.08;;
51148;SDS011;37210;50.058;8.688;2023-03-26T09:06:57;4.97;;;2.70;;
51148;SDS011;37210;50.058;8.688;2023-03-26T09:13:33;4.63;;;2.72;;
51148;SDS011;37210;50.058;8.688;2023-03-26T09:19:52;5.60;;;3.25;;
51148;SDS011;37210;50.058;8.688;2023-03-26T09:26:23;5.05;;;2.53;;
51148;SDS011;37210;50.058;8.688;2023-03-26T09:29:12;5.15;;;2.42;;
51148;SDS011;37210;50.058;8.688;2023-03-26T09:32:37;6.22;;;2.65;;
51148;SDS011;37210;50.058;8.688;2023-03-26T09:35:37;3.58;;;2.38;;
51148;SDS011;37210;50.058;8.688;2023-03-26T09:41:14;4.88;;;2.10;;
51148;SDS011;37210;50.058;8.688;2023-03-26T09:50:41;5.47;;;2.10;;
51148;SDS011;37210;50.058;8.688;2023-03-26T09:53:33;3.65;;;2.05;;
51148;SDS011;37210;50.058;8.688;2023-03-26T09:56:34;2.28;;;1.85;;
51148;SDS011;37210;50.058;8.688;2023-03-26T09:59:36;2.95;;;2.03;;
51148;SDS011;37210;50.058;8.688;2023-03-26T10:02:56;4.30;;;1.92;;
51148;SDS011;37210;50.058;8.688;2023-03-26T10:05:43;3.38;;;2.05;;
51148;SDS011;37210;50.058;8.688;2023-03-26T10:08:35;4.35;;;2.33;;
51148;SDS011;37210;50.058;8.688;2023-03-26T10:11:20;3.10;;;2.00;;
51148;SDS011;37210;50.058;8.688;2023-03-26T10:14:07;4.00;;;1.92;;
51148;SDS011;37210;50.058;8.688;2023-03-26T10:19:36;2.63;;;2.22;;
51148;SDS011;37210;50.058;8.688;2023-03-26T10:22:33;2.55;;;1.73;;
51148;SDS011;37210;50.058;8.688;2023-03-26T10:25:21;3.78;;;1.48;;
51148;SDS011;37210;50.058;8.688;2023-03-26T10:28:12;3.28;;;1.77;;
51148;SDS011;37210;50.058;8.688;2023-03-26T10:31:06;2.33;;;1.60;;
51148;SDS011;37210;50.058;8.688;2023-03-26T10:33:58;3.90;;;1.92;;
51148;SDS011;37210;50.058;8.688;2023-03-26T10:36:37;2.33;;;1.60;;
51148;SDS011;37210;50.058;8.688;2023-03-26T10:39:27;3.50;;;1.50;;
51148;SDS011;37210;50.058;8.688;2023-03-26T10:42:20;3.05;;;1.40;;
51148;SDS011;37210;50.058;8.688;2023-03-26T10:45:23;3.60;;;1.40;;
51148;SDS011;37210;50.058;8.688;2023-03-26T10:48:09;1.92;;;1.10;;
51148;SDS011;37210;50.058;8.688;2023-03-26T10:51:15;2.28;;;1.10;;
51148;SDS011;37210;50.058;8.688;2023-03-26T10:53:57;1.50;;;1.40;;
51148;SDS011;37210;50.058;8.688;2023-03-26T10:56:33;2.80;;;1.38;;
51148;SDS011;37210;50.058;8.688;2023-03-26T10:59:07;2.15;;;1.15;;
51148;SDS011;37210;50.058;8.688;2023-03-26T11:01:41;2.58;;;1.30;;
51148;SDS011;37210;50.058;8.688;2023-03-26T11:04:26;2.78;;;1.58;;
51148;SDS011;37210;50.058;8.688;2023-03-26T11:07:10;2.20;;;1.45;;
51148;SDS011;37210;50.058;8.688;2023-03-26T11:09:48;1.90;;;1.20;;
51148;SDS011;37210;50.058;8.688;2023-03-26T11:12:28;2.72;;;1.05;;
51148;SDS011;37210;50.058;8.688;2023-03-26T11:15:10;2.83;;;1.00;;
51148;SDS011;37210;50.058;8.688;2023-03-26T11:17:53;1.45;;;1.30;;
51148;SDS011;37210;50.058;8.688;2023-03-26T11:20:37;2.60;;;1.27;;
51148;SDS011;37210;50.058;8.688;2023-03-26T11:23:16;2.08;;;1.50;;
51148;SDS011;37210;50.058;8.688;2023-03-26T11:26:04;2.83;;;1.38;;
51148;SDS011;37210;50.058;8.688;2023-03-26T11:31:45;1.73;;;1.25;;
51148;SDS011;37210;50.058;8.688;2023-03-26T11:34:26;2.88;;;1.30;;
51148;SDS011;37210;50.058;8.688;2023-03-26T11:37:00;3.40;;;1.63;;
51148;SDS011;37210;50.058;8.688;2023-03-26T11:39:36;2.08;;;1.40;;
51148;SDS011;37210;50.058;8.688;2023-03-26T11:42:14;3.25;;;1.75;;
51148;SDS011;37210;50.058;8.688;2023-03-26T11:44:49;2.10;;;1.33;;
51148;SDS011;37210;50.058;8.688;2023-03-26T11:47:27;1.80;;;1.50;;
51148;SDS011;37210;50.058;8.688;2023-03-26T11:50:03;3.63;;;1.20;;
51148;SDS011;37210;50.058;8.688;2023-03-26T11:52:40;3.72;;;1.70;;
51148;SDS011;37210;50.058;8.688;2023-03-26T11:55:09;3.38;;;1.77;;
51148;SDS011;37210;50.058;8.688;2023-03-26T11:57:38;3.00;;;1.67;;
51148;SDS011;37210;50.058;8.688;2023-03-26T12:00:14;4.28;;;1.50;;
51148;SDS011;37210;50.058;8.688;2023-03-26T12:02:46;1.85;;;1.40;;
51148;SDS011;37210;50.058;8.688;2023-03-26T12:05:17;1.42;;;1.10;;
51148;SDS011;37210;50.058;8.688;2023-03-26T12:07:51;2.60;;;1.42;;
51148;SDS011;37210;50.058;8.688;2023-03-26T12:10:23;1.90;;;1.38;;
51148;SDS011;37210;50.058;8.688;2023-03-26T12:13:00;1.80;;;1.13;;
51148;SDS011;37210;50.058;8.688;2023-03-26T12:15:50;1.90;;;1.10;;
51148;SDS011;37210;50.058;8.688;2023-03-26T12:18:27;1.95;;;1.05;;
51148;SDS011;37210;50.058;8.688;2023-03-26T12:21:06;1.48;;;1.10;;
51148;SDS011;37210;50.058;8.688;2023-03-26T12:23:37;3.05;;;1.40;;
51148;SDS011;37210;50.058;8.688;2023-03-26T12:26:17;2.08;;;1.70;;
51148;SDS011;37210;50.058;8.688;2023-03-26T12:28:56;2.47;;;1.80;;
51148;SDS011;37210;50.058;8.688;2023-03-26T12:31:39;2.22;;;1.55;;
51148;SDS011;37210;50.058;8.688;2023-03-26T12:34:15;1.60;;;1.40;;
51148;SDS011;37210;50.058;8.688;2023-03-26T12:36:50;1.15;;;0.88;;
51148;SDS011;37210;50.058;8.688;2023-03-26T12:39:31;3.13;;;0.83;;
51148;SDS011;37210;50.058;8.688;2023-03-26T12:42:03;1.10;;;1.00;;
51148;SDS011;37210;50.058;8.688;2023-03-26T12:44:50;1.80;;;1.20;;
51148;SDS011;37210;50.058;8.688;2023-03-26T12:47:22;1.70;;;1.10;;
51148;SDS011;37210;50.058;8.688;2023-03-26T12:49:53;1.55;;;1.27;;
51148;SDS011;37210;50.058;8.688;2023-03-26T12:55:33;1.73;;;1.55;;
51148;SDS011;37210;50.058;8.688;2023-03-26T12:58:16;1.77;;;1.10;;
51148;SDS011;37210;50.058;8.688;2023-03-26T13:01:04;2.42;;;1.50;;
51148;SDS011;37210;50.058;8.688;2023-03-26T13:03:43;2.47;;;1.05;;
51148;SDS011;37210;50.058;8.688;2023-03-26T13:06:36;1.13;;;1.02;;
51148;SDS011;37210;50.058;8.688;2023-03-26T13:12:18;2.20;;;0.82;;
51148;SDS011;37210;50.058;8.688;2023-03-26T13:15:05;2.08;;;1.00;;
51148;SDS011;37210;50.058;8.688;2023-03-26T13:17:50;1.65;;;0.85;;
51148;SDS011;37210;50.058;8.688;2023-03-26T13:20:33;1.10;;;0.82;;
51148;SDS011;37210;50.058;8.688;2023-03-26T13:23:18;1.15;;;1.00;;
51148;SDS011;37210;50.058;8.688;2023-03-26T13:26:08;1.55;;;0.90;;
51148;SDS011;37210;50.058;8.688;2023-03-26T13:28:55;2.20;;;0.95;;
51148;SDS011;37210;50.058;8.688;2023-03-26T13:31:35;0.98;;;0.88;;
51148;SDS011;37210;50.058;8.688;2023-03-26T13:34:13;2.95;;;0.98;;
51148;SDS011;37210;50.058;8.688;2023-03-26T13:36:55;1.40;;;0.85;;
51148;SDS011;37210;50.058;8.688;2023-03-26T13:39:40;1.38;;;0.90;;
51148;SDS011;37210;50.058;8.688;2023-03-26T13:42:28;1.37;;;0.93;;
51148;SDS011;37210;50.058;8.688;2023-03-26T13:47:53;0.80;;;0.80;;
51148;SDS011;37210;50.058;8.688;2023-03-26T13:50:25;1.90;;;0.95;;
51148;SDS011;37210;50.058;8.688;2023-03-26T13:52:59;2.03;;;0.80;;
51148;SDS011;37210;50.058;8.688;2023-03-26T13:55:34;1.55;;;0.93;;
51148;SDS011;37210;50.058;8.688;2023-03-26T13:58:11;1.90;;;0.88;;
51148;SDS011;37210;50.058;8.688;2023-03-26T14:00:49;1.48;;;0.80;;
51148;SDS011;37210;50.058;8.688;2023-03-26T14:03:25;2.88;;;1.00;;
51148;SDS011;37210;50.058;8.688;2023-03-26T14:06:03;2.17;;;1.00;;
51148;SDS011;37210;50.058;8.688;2023-03-26T14:08:40;3.25;;;1.10;;
51148;SDS011;37210;50.058;8.688;2023-03-26T14:11:15;1.40;;;0.80;;
51148;SDS011;37210;50.058;8.688;2023-03-26T14:13:53;2.50;;;1.42;;
51148;SDS011;37210;50.058;8.688;2023-03-26T14:16:30;1.80;;;1.10;;
51148;SDS011;37210;50.058;8.688;2023-03-26T14:19:11;3.33;;;1.35;;
51148;SDS011;37210;50.058;8.688;2023-03-26T14:22:09;1.20;;;0.82;;
51148;SDS011;37210;50.058;8.688;2023-03-26T14:24:53;1.20;;;0.93;;
51148;SDS011;37210;50.058;8.688;2023-03-26T14:27:49;2.17;;;0.77;;
51148;SDS011;37210;50.058;8.688;2023-03-26T14:33:41;1.00;;;0.52;;
51148;SDS011;37210;50.058;8.688;2023-03-26T14:36:26;1.73;;;0.77;;
51148;SDS011;37210;50.058;8.688;2023-03-26T14:42:40;2.75;;;0.80;;
51148;SDS011;37210;50.058;8.688;2023-03-26T14:45:25;1.55;;;0.90;;
51148;SDS011;37210;50.058;8.688;2023-03-26T14:51:40;2.30;;;0.98;;
51148;SDS011;37210;50.058;8.688;2023-03-26T14:54:25;3.53;;;1.33;;
51148;SDS011;37210;50.058;8.688;2023-03-26T14:57:05;3.13;;;1.10;;
51148;SDS011;37210;50.058;8.688;2023-03-26T15:00:06;2.28;;;1.25;;
51148;SDS011;37210;50.058;8.688;2023-03-26T15:07:20;2.63;;;1.40;;
51148;SDS011;37210;50.058;8.688;2023-03-26T15:10:13;1.42;;;1.10;;
51148;SDS011;37210;50.058;8.688;2023-03-26T15:13:06;1.33;;;1.00;;
51148;SDS011;37210;50.058;8.688;2023-03-26T15:16:15;1.20;;;0.90;;
51148;SDS011;37210;50.058;8.688;2023-03-26T15:19:46;2.92;;;1.20;;
51148;SDS011;37210;50.058;8.688;2023-03-26T15:26:25;2.60;;;1.25;;
51148;SDS011;37210;50.058;8.688;2023-03-26T15:33:08;1.80;;;1.42;;
51148;SDS011;37210;50.058;8.688;2023-03-26T15:36:28;3.28;;;1.40;;
51148;SDS011;37210;50.058;8.688;2023-03-26T15:39:29;2.88;;;1.50;;
51148;SDS011;37210;50.058;8.688;2023-03-26T15:42:21;3.10;;;1.58;;
51148;SDS011;37210;50.058;8.688;2023-03-26T15:44:58;2.75;;;1.38;;
51148;SDS011;37210;50.058;8.688;2023-03-26T15:48:10;2.42;;;1.40;;
51148;SDS011;37210;50.058;8.688;2023-03-26T15:51:23;2.33;;;1.35;;
51148;SDS011;37210;50.058;8.688;2023-03-26T15:54:14;3.75;;;1.30;;
51148;SDS011;37210;50.058;8.688;2023-03-26T15:56:56;2.05;;;1.05;;
51148;SDS011;37210;50.058;8.688;2023-03-26T15:59:41;2.13;;;1.02;;
51148;SDS011;37210;50.058;8.688;2023-03-26T16:02:39;2.45;;;1.25;;
51148;SDS011;37210;50.058;8.688;2023-03-26T16:05:23;1.30;;;0.70;;
51148;SDS011;37210;50.058;8.688;2023-03-26T16:08:05;0.73;;;0.60;;
51148;SDS011;37210;50.058;8.688;2023-03-26T16:10:49;0.57;;;0.57;;
51148;SDS011;37210;50.058;8.688;2023-03-26T16:13:32;1.35;;;0.95;;
51148;SDS011;37210;50.058;8.688;2023-03-26T16:16:22;1.30;;;0.80;;
51148;SDS011;37210;50.058;8.688;2023-03-26T16:22:34;1.38;;;0.98;;
51148;SDS011;37210;50.058;8.688;2023-03-26T16:25:16;1.67;;;1.25;;
51148;SDS011;37210;50.058;8.688;2023-03-26T16:31:17;0.98;;;0.77;;
51148;SDS011;37210;50.058;8.688;2023-03-26T16:33:51;2.35;;;0.98;;
51148;SDS011;37210;50.058;8.688;2023-03-26T16:36:27;0.88;;;0.82;;
51148;SDS011;37210;50.058;8.688;2023-03-26T16:39:18;1.65;;;0.88;;
51148;SDS011;37210;50.058;8.688;2023-03-26T16:42:02;1.02;;;0.70;;
51148;SDS011;37210;50.058;8.688;2023-03-26T16:45:02;0.75;;;0.60;;
51148;SDS011;37210;50.058;8.688;2023-03-26T16:47:48;2.17;;;0.80;;
51148;SDS011;37210;50.058;8.688;2023-03-26T16:50:30;0.60;;;0.60;;
51148;SDS011;37210;50.058;8.688;2023-03-26T16:53:14;1.17;;;0.60;;
51148;SDS011;37210;50.058;8.688;2023-03-26T16:56:00;1.42;;;0.77;;
51148;SDS011;37210;50.058;8.688;2023-03-26T16:58:44;0.95;;;0.77;;
51148;SDS011;37210;50.058;8.688;2023-03-26T17:01:26;0.70;;;0.63;;
51148;SDS011;37210;50.058;8.688;2023-03-26T17:04:08;1.58;;;1.08;;
51148;SDS011;37210;50.058;8.688;2023-03-26T17:06:48;1.30;;;0.90;;
51148;SDS011;37210;50.058;8.688;2023-03-26T17:12:12;2.03;;;1.00;;
51148;SDS011;37210;50.058;8.688;2023-03-26T17:14:52;1.30;;;1.13;;
51148;SDS011;37210;50.058;8.688;2023-03-26T17:17:48;1.73;;;1.42;;
51148;SDS011;37210;50.058;8.688;2023-03-26T17:20:39;2.05;;;0.93;;
51148;SDS011;37210;50.058;8.688;2023-03-26T17:23:23;1.55;;;1.10;;
51148;SDS011;37210;50.058;8.688;2023-03-26T17:26:10;0.80;;;0.80;;
51148;SDS011;37210;50.058;8.688;2023-03-26T17:29:00;1.55;;;0.90;;
51148;SDS011;37210;50.058;8.688;2023-03-26T17:31:47;1.45;;;1.13;;
51148;SDS011;37210;50.058;8.688;2023-03-26T17:37:30;1.83;;;1.20;;
51148;SDS011;37210;50.058;8.688;2023-03-26T17:43:09;1.45;;;0.90;;
51148;SDS011;37210;50.058;8.688;2023-03-26T17:45:38;1.77;;;1.48;;
51148;SDS011;37210;50.058;8.688;2023-03-26T17:48:11;1.42;;;0.90;;
51148;SDS011;37210;50.058;8.688;2023-03-26T17:50:49;2.45;;;1.50;;
51148;SDS011;37210;50.058;8.688;2023-03-26T17:53:24;1.95;;;1.17;;